createdAt,value
2019-03-30T00:00:35.621Z,5.10
2019-03-30T00:03:23.859Z,5.33
2019-03-30T00:06:12.206Z,5.33
2019-03-30T00:09:00.406Z,5.23
2019-03-30T00:11:48.596Z,5.10
2019-03-30T00:14:36.983Z,4.50
2019-03-30T00:17:25.635Z,5.07
2019-03-30T00:20:13.380Z,4.77
2019-03-30T00:23:01.237Z,5.00
2019-03-30T00:25:55.712Z,5.30
2019-03-30T00:28:43.875Z,4.87
2019-03-30T00:31:32.186Z,5.13
2019-03-30T00:34:20.860Z,4.90
2019-03-30T00:37:08.631Z,4.60
2019-03-30T00:39:56.567Z,5.30
2019-03-30T00:42:45.536Z,5.40
2019-03-30T00:45:37.849Z,6.97
2019-03-30T00:48:26.131Z,4.97
2019-03-30T00:51:16.156Z,5.63
2019-03-30T00:54:04.966Z,4.93
2019-03-30T00:56:59.075Z,4.90
2019-03-30T00:59:50.089Z,5.00
2019-03-30T01:02:40.771Z,4.47
2019-03-30T01:05:28.283Z,5.43
2019-03-30T01:08:18.594Z,5.80
2019-03-30T01:11:06.707Z,5.63
2019-03-30T01:13:54.791Z,4.83
2019-03-30T01:16:42.955Z,4.50
2019-03-30T01:19:30.899Z,4.67
2019-03-30T01:22:19.033Z,5.20
2019-03-30T01:25:08.014Z,5.10
2019-03-30T01:27:55.661Z,4.10
2019-03-30T01:30:43.631Z,4.53
2019-03-30T01:33:31.975Z,4.87
2019-03-30T01:36:19.703Z,4.47
2019-03-30T01:39:08.376Z,4.43
2019-03-30T01:41:56.299Z,4.90
2019-03-30T01:44:44.644Z,4.43
2019-03-30T01:47:32.645Z,4.63
2019-03-30T01:50:20.610Z,4.00
2019-03-30T01:53:08.591Z,4.10
2019-03-30T01:55:56.579Z,4.37
2019-03-30T01:58:44.655Z,3.90
2019-03-30T02:01:32.590Z,3.73
2019-03-30T02:04:20.402Z,4.37
2019-03-30T02:07:08.089Z,4.00
2019-03-30T02:09:55.770Z,3.97
2019-03-30T02:12:43.873Z,4.00
2019-03-30T02:15:32.102Z,4.07
2019-03-30T02:18:20.030Z,4.20
2019-03-30T02:21:08.339Z,5.00
2019-03-30T02:23:56.647Z,5.10
2019-03-30T02:26:44.319Z,4.73
2019-03-30T02:29:32.915Z,5.03
2019-03-30T02:32:21.155Z,4.50
2019-03-30T02:35:09.319Z,4.60
2019-03-30T02:37:57.551Z,4.80
2019-03-30T02:40:47.502Z,4.10
2019-03-30T02:43:35.540Z,4.50
2019-03-30T02:46:23.908Z,4.07
2019-03-30T02:49:11.963Z,4.20
2019-03-30T02:51:59.982Z,4.57
2019-03-30T02:54:48.156Z,4.33
2019-03-30T02:57:37.011Z,4.27
2019-03-30T03:00:25.255Z,5.37
2019-03-30T03:03:13.152Z,4.07
2019-03-30T03:06:00.965Z,4.00
2019-03-30T03:08:49.254Z,4.40
2019-03-30T03:11:37.928Z,3.70
2019-03-30T03:14:25.895Z,4.40
2019-03-30T03:17:14.234Z,4.47
2019-03-30T03:20:35.140Z,4.57
2019-03-30T03:23:23.831Z,4.07
2019-03-30T03:26:11.818Z,4.03
2019-03-30T03:29:03.073Z,4.73
2019-03-30T03:31:57.556Z,5.17
2019-03-30T03:34:46.042Z,4.23
2019-03-30T03:37:45.362Z,4.47
2019-03-30T03:40:47.160Z,4.27
2019-03-30T03:43:35.772Z,4.20
2019-03-30T03:46:27.434Z,4.87
2019-03-30T03:49:15.774Z,4.07
2019-03-30T03:55:13.916Z,4.80
2019-03-30T03:58:03.511Z,4.17
2019-03-30T04:00:55.528Z,4.20
2019-03-30T04:03:43.969Z,5.03
2019-03-30T04:06:33.633Z,4.17
2019-03-30T04:09:24.529Z,4.03
2019-03-30T04:12:13.995Z,4.40
2019-03-30T04:15:12.458Z,4.57
2019-03-30T04:18:00.700Z,4.37
2019-03-30T04:20:49.513Z,4.07
2019-03-30T04:30:02.885Z,4.37
2019-03-30T04:32:50.906Z,4.47
2019-03-30T04:38:36.993Z,4.33
2019-03-30T04:41:25.843Z,4.73
2019-03-30T04:44:16.610Z,5.03
2019-03-30T04:47:13.276Z,3.90
2019-03-30T04:50:02.834Z,4.50
2019-03-30T04:52:53.926Z,4.23
2019-03-30T04:55:46.640Z,3.83
2019-03-30T04:58:34.943Z,4.30
2019-03-30T05:01:22.838Z,4.20
2019-03-30T05:08:05.625Z,4.00
2019-03-30T05:11:29.355Z,3.80
2019-03-30T05:14:21.188Z,4.20
2019-03-30T05:17:09.605Z,4.17
2019-03-30T05:19:58.266Z,4.37
2019-03-30T05:22:47.274Z,4.20
2019-03-30T05:25:44.381Z,4.40
2019-03-30T05:28:33.652Z,4.93
2019-03-30T05:31:21.500Z,3.60
2019-03-30T05:34:10.589Z,3.93
2019-03-30T05:36:59.350Z,3.70
2019-03-30T05:39:48.103Z,3.90
2019-03-30T05:42:36.441Z,3.73
2019-03-30T05:45:26.113Z,3.73
2019-03-30T05:48:14.429Z,3.10
2019-03-30T05:51:07.498Z,4.00
2019-03-30T05:53:58.175Z,3.80
2019-03-30T05:56:49.088Z,3.60
2019-03-30T05:59:40.696Z,4.17
2019-03-30T06:02:36.710Z,4.10
2019-03-30T06:05:39.581Z,3.70
2019-03-30T06:08:28.737Z,4.27
2019-03-30T06:11:16.973Z,3.90
2019-03-30T06:14:05.102Z,3.83
2019-03-30T06:17:02.657Z,4.00
2019-03-30T06:19:50.584Z,3.77
2019-03-30T06:22:48.238Z,3.80
2019-03-30T06:25:36.159Z,4.43
2019-03-30T06:28:24.294Z,3.63
2019-03-30T06:31:12.719Z,3.67
2019-03-30T06:34:01.048Z,3.90
2019-03-30T06:36:58.632Z,4.40
2019-03-30T06:39:47.236Z,3.77
2019-03-30T06:42:35.508Z,4.17
2019-03-30T06:45:25.424Z,3.03
2019-03-30T06:48:13.294Z,3.53
2019-03-30T06:51:01.669Z,3.50
2019-03-30T06:53:49.629Z,3.83
2019-03-30T06:56:38.096Z,3.73
2019-03-30T06:59:26.015Z,3.30
2019-03-30T07:02:15.466Z,3.70
2019-03-30T07:05:03.299Z,4.13
2019-03-30T07:07:51.937Z,3.00
2019-03-30T07:10:41.120Z,3.03
2019-03-30T07:13:38.295Z,3.30
2019-03-30T07:16:26.855Z,3.63
2019-03-30T07:19:14.861Z,3.50
2019-03-30T07:22:02.468Z,2.80
2019-03-30T07:24:50.638Z,2.97
2019-03-30T07:27:38.390Z,3.00
2019-03-30T07:30:26.516Z,3.00
2019-03-30T07:33:14.482Z,3.00
2019-03-30T07:36:02.300Z,2.67
2019-03-30T07:38:50.448Z,3.00
2019-03-30T07:41:38.525Z,2.90
2019-03-30T07:44:26.494Z,2.13
2019-03-30T07:47:13.954Z,2.73
2019-03-30T07:50:02.378Z,1.43
2019-03-30T07:52:50.674Z,2.97
2019-03-30T07:55:38.015Z,1.07
2019-03-30T07:58:25.684Z,1.63
2019-03-30T08:01:13.781Z,2.03
2019-03-30T08:04:01.810Z,2.77
2019-03-30T08:06:49.271Z,2.90
2019-03-30T08:09:37.334Z,1.70
2019-03-30T08:12:25.265Z,3.60
2019-03-30T08:15:14.043Z,3.00
2019-03-30T08:18:02.144Z,2.90
2019-03-30T08:20:50.070Z,3.40
2019-03-30T08:23:40.671Z,2.47
2019-03-30T08:26:27.158Z,2.40
2019-03-30T08:29:15.359Z,2.97
2019-03-30T08:32:03.055Z,2.77
2019-03-30T08:34:50.854Z,2.77
2019-03-30T08:37:38.574Z,2.60
2019-03-30T08:40:26.508Z,3.10
2019-03-30T08:43:14.361Z,2.50
2019-03-30T08:46:02.226Z,2.90
2019-03-30T08:48:50.308Z,2.70
2019-03-30T08:51:38.018Z,3.53
2019-03-30T08:54:25.927Z,2.63
2019-03-30T08:57:13.970Z,2.63
2019-03-30T09:00:01.579Z,2.47
2019-03-30T09:02:48.923Z,2.43
2019-03-30T09:05:36.739Z,2.07
2019-03-30T09:08:24.687Z,2.37
2019-03-30T09:11:12.086Z,2.40
2019-03-30T09:14:00.088Z,2.20
2019-03-30T09:16:47.647Z,2.40
2019-03-30T09:19:35.934Z,2.33
2019-03-30T09:22:23.486Z,2.30
2019-03-30T09:25:11.516Z,2.17
2019-03-30T09:27:59.139Z,3.00
2019-03-30T09:30:46.628Z,3.03
2019-03-30T09:33:34.521Z,1.80
2019-03-30T09:36:22.464Z,2.20
2019-03-30T09:39:10.542Z,2.07
2019-03-30T09:41:58.714Z,2.00
2019-03-30T09:44:46.170Z,2.57
2019-03-30T09:47:34.257Z,2.00
2019-03-30T09:50:22.159Z,1.93
2019-03-30T09:53:09.493Z,2.20
2019-03-30T09:55:57.282Z,2.10
2019-03-30T09:58:44.962Z,2.20
2019-03-30T10:01:33.044Z,2.13
2019-03-30T10:04:20.608Z,2.90
2019-03-30T10:07:08.446Z,1.90
2019-03-30T10:09:56.377Z,2.47
2019-03-30T10:12:44.186Z,3.00
2019-03-30T10:15:32.142Z,2.40
2019-03-30T10:18:19.848Z,2.20
2019-03-30T10:21:07.930Z,2.60
2019-03-30T10:23:55.609Z,2.83
2019-03-30T10:26:42.983Z,2.43
2019-03-30T10:29:31.058Z,2.37
2019-03-30T10:32:19.149Z,2.60
2019-03-30T10:35:07.942Z,2.00
2019-03-30T10:37:55.563Z,2.57
2019-03-30T10:40:43.795Z,2.57
2019-03-30T10:43:31.887Z,2.10
2019-03-30T10:46:19.732Z,2.77
2019-03-30T10:49:07.333Z,2.60
2019-03-30T10:51:55.293Z,1.77
2019-03-30T10:54:52.573Z,2.33
2019-03-30T10:57:31.873Z,2.23
2019-03-30T11:00:36.393Z,2.13
2019-03-30T11:03:24.619Z,2.30
2019-03-30T11:06:12.733Z,2.10
2019-03-30T11:09:00.669Z,2.00
2019-03-30T11:11:49.190Z,2.20
2019-03-30T11:14:37.052Z,2.20
2019-03-30T11:17:25.157Z,2.00
2019-03-30T11:20:13.226Z,1.97
2019-03-30T11:23:01.819Z,2.27
2019-03-30T11:25:49.373Z,2.60
2019-03-30T11:28:37.450Z,2.40
2019-03-30T11:31:25.230Z,2.43
2019-03-30T11:34:12.927Z,2.30
2019-03-30T11:37:00.582Z,2.03
2019-03-30T11:39:48.768Z,2.00
2019-03-30T11:42:36.859Z,1.70
2019-03-30T11:45:24.435Z,1.90
2019-03-30T11:48:12.305Z,1.47
2019-03-30T11:51:00.240Z,1.10
2019-03-30T11:53:48.414Z,1.70
2019-03-30T11:56:36.480Z,0.70
2019-03-30T11:59:24.327Z,1.10
2019-03-30T12:02:12.146Z,1.00
2019-03-30T12:04:59.867Z,1.23
2019-03-30T12:07:47.613Z,1.57
2019-03-30T12:10:35.649Z,1.00
2019-03-30T12:13:23.223Z,1.70
2019-03-30T12:16:10.801Z,1.57
2019-03-30T12:18:58.943Z,1.00
2019-03-30T12:21:46.428Z,1.50
2019-03-30T12:24:34.591Z,0.70
2019-03-30T12:27:22.643Z,0.83
2019-03-30T12:30:10.878Z,1.00
2019-03-30T12:32:58.520Z,0.80
2019-03-30T12:35:46.528Z,1.17
2019-03-30T12:38:34.282Z,0.60
2019-03-30T12:41:22.102Z,1.27
2019-03-30T12:44:10.172Z,0.97
2019-03-30T12:46:58.296Z,1.20
2019-03-30T12:49:46.118Z,0.90
2019-03-30T12:52:34.108Z,0.90
2019-03-30T12:55:22.089Z,0.50
2019-03-30T12:58:10.229Z,1.00
2019-03-30T13:00:58.219Z,1.10
2019-03-30T13:03:46.136Z,0.93
2019-03-30T13:06:34.093Z,1.10
2019-03-30T13:09:21.527Z,1.10
2019-03-30T13:12:09.716Z,0.97
2019-03-30T13:14:57.695Z,1.20
2019-03-30T13:17:45.337Z,1.33
2019-03-30T13:20:33.444Z,1.33
2019-03-30T13:23:21.124Z,1.60
2019-03-30T13:26:09.057Z,2.30
2019-03-30T13:28:56.822Z,1.57
2019-03-30T13:31:44.504Z,1.80
2019-03-30T13:34:32.360Z,0.87
2019-03-30T13:37:20.377Z,1.37
2019-03-30T13:40:08.616Z,1.43
2019-03-30T13:42:56.240Z,0.83
2019-03-30T13:45:44.202Z,1.07
2019-03-30T13:48:32.231Z,1.60
2019-03-30T13:51:19.979Z,1.90
2019-03-30T13:54:07.962Z,1.43
2019-03-30T13:56:56.016Z,0.90
2019-03-30T13:59:43.676Z,1.20
2019-03-30T14:02:31.570Z,1.67
2019-03-30T14:05:19.355Z,1.33
2019-03-30T14:08:07.588Z,1.27
2019-03-30T14:10:55.249Z,0.97
2019-03-30T14:13:42.868Z,0.80
2019-03-30T14:16:30.508Z,0.87
2019-03-30T14:19:18.515Z,1.27
2019-03-30T14:22:06.568Z,1.03
2019-03-30T14:24:54.674Z,0.87
2019-03-30T14:27:42.208Z,1.07
2019-03-30T14:30:30.067Z,0.57
2019-03-30T14:33:17.977Z,1.53
2019-03-30T14:36:05.912Z,1.70
2019-03-30T14:38:54.124Z,1.13
2019-03-30T14:41:41.965Z,0.73
2019-03-30T14:44:29.633Z,1.40
2019-03-30T14:47:17.516Z,0.90
2019-03-30T14:50:05.644Z,0.83
2019-03-30T14:52:54.190Z,1.20
2019-03-30T14:55:42.383Z,1.00
2019-03-30T14:58:30.211Z,1.50
2019-03-30T15:01:17.844Z,0.93
2019-03-30T15:04:05.700Z,0.90
2019-03-30T15:06:53.310Z,0.97
2019-03-30T15:09:41.868Z,1.10
2019-03-30T15:12:29.886Z,0.60
2019-03-30T15:15:18.043Z,1.47
2019-03-30T15:18:05.692Z,1.60
2019-03-30T15:20:53.329Z,1.33
2019-03-30T15:23:41.191Z,1.30
2019-03-30T15:26:29.149Z,1.33
2019-03-30T15:29:16.846Z,1.63
2019-03-30T15:32:04.490Z,1.70
2019-03-30T15:34:52.238Z,1.57
2019-03-30T15:37:40.283Z,1.80
2019-03-30T15:40:27.924Z,1.97
2019-03-30T15:43:15.692Z,1.73
2019-03-30T15:46:03.687Z,1.50
2019-03-30T15:48:51.702Z,1.63
2019-03-30T15:51:39.891Z,1.80
2019-03-30T15:54:27.112Z,2.20
2019-03-30T15:57:15.311Z,1.70
2019-03-30T16:00:06.857Z,1.60
2019-03-30T16:02:52.854Z,1.90
2019-03-30T16:05:40.861Z,2.00
2019-03-30T16:08:28.670Z,2.17
2019-03-30T16:11:16.417Z,1.60
2019-03-30T16:14:04.414Z,2.10
2019-03-30T16:16:52.114Z,1.87
2019-03-30T16:19:40.094Z,1.80
2019-03-30T16:22:28.591Z,1.90
2019-03-30T16:25:16.651Z,2.17
2019-03-30T16:28:04.330Z,2.10
2019-03-30T16:30:52.774Z,3.63
2019-03-30T16:33:40.662Z,2.50
2019-03-30T16:36:28.823Z,2.87
2019-03-30T16:39:16.324Z,2.50
2019-03-30T16:42:04.825Z,5.00
2019-03-30T16:44:52.988Z,2.63
2019-03-30T16:48:05.478Z,2.40
2019-03-30T16:50:52.903Z,3.13
2019-03-30T16:53:40.994Z,3.07
2019-03-30T16:56:29.344Z,2.60
2019-03-30T16:59:18.370Z,3.40
2019-03-30T17:02:06.586Z,2.63
2019-03-30T17:04:55.942Z,3.03
2019-03-30T17:07:44.259Z,2.70
2019-03-30T17:10:33.125Z,2.90
2019-03-30T17:13:24.274Z,2.43
2019-03-30T17:16:12.278Z,2.40
2019-03-30T17:19:03.778Z,3.87
2019-03-30T17:21:51.804Z,2.50
2019-03-30T17:24:41.533Z,2.20
2019-03-30T17:27:29.919Z,2.80
2019-03-30T17:30:24.902Z,2.50
2019-03-30T17:36:43.732Z,3.03
2019-03-30T17:40:05.857Z,3.07
2019-03-30T17:42:57.150Z,3.20
2019-03-30T17:45:48.675Z,2.80
2019-03-30T17:48:37.211Z,3.17
2019-03-30T17:51:25.557Z,3.40
2019-03-30T17:57:34.671Z,3.27
2019-03-30T18:00:23.631Z,3.00
2019-03-30T18:03:12.256Z,2.80
2019-03-30T18:06:01.094Z,2.70
2019-03-30T18:08:51.142Z,2.53
2019-03-30T18:11:39.055Z,3.20
2019-03-30T18:14:28.051Z,2.77
2019-03-30T18:17:16.771Z,3.43
2019-03-30T18:20:04.829Z,3.37
2019-03-30T18:22:53.482Z,2.73
2019-03-30T18:25:42.154Z,3.10
2019-03-30T18:28:29.772Z,3.17
2019-03-30T18:31:18.726Z,6.20
2019-03-30T18:34:06.800Z,3.00
2019-03-30T18:36:55.601Z,3.20
2019-03-30T18:39:44.207Z,3.47
2019-03-30T18:42:32.076Z,3.37
2019-03-30T18:45:26.092Z,3.40
2019-03-30T18:48:14.891Z,3.80
2019-03-30T18:51:05.381Z,2.97
2019-03-30T18:53:52.761Z,3.70
2019-03-30T18:56:41.197Z,4.50
2019-03-30T18:59:30.049Z,3.63
2019-03-30T19:02:19.327Z,3.60
2019-03-30T19:05:08.810Z,3.53
2019-03-30T19:07:58.241Z,3.60
2019-03-30T19:10:46.392Z,3.90
2019-03-30T19:13:34.649Z,3.70
2019-03-30T19:16:22.473Z,4.00
2019-03-30T19:19:12.296Z,4.07
2019-03-30T19:22:02.070Z,4.30
2019-03-30T19:24:50.202Z,4.10
2019-03-30T19:27:38.980Z,4.30
2019-03-30T19:30:26.999Z,4.40
2019-03-30T19:33:16.646Z,3.80
2019-03-30T19:36:04.509Z,4.30
2019-03-30T19:38:51.886Z,4.50
2019-03-30T19:41:40.418Z,4.93
2019-03-30T19:44:29.936Z,4.60
2019-03-30T19:47:18.489Z,5.13
2019-03-30T19:50:07.398Z,5.43
2019-03-30T19:52:55.984Z,5.40
2019-03-30T19:55:44.126Z,5.20
2019-03-30T19:58:34.304Z,5.63
2019-03-30T20:01:22.647Z,6.20
2019-03-30T20:04:14.153Z,5.90
2019-03-30T20:07:02.598Z,6.00
2019-03-30T20:09:51.001Z,6.33
2019-03-30T20:12:39.250Z,6.20
2019-03-30T20:15:27.100Z,7.00
2019-03-30T20:21:09.484Z,6.53
2019-03-30T20:23:57.336Z,7.37
2019-03-30T20:26:45.396Z,7.73
2019-03-30T20:29:33.194Z,7.63
2019-03-30T20:32:21.837Z,8.50
2019-03-30T20:35:11.506Z,7.33
2019-03-30T20:38:00.021Z,6.77
2019-03-30T20:40:50.921Z,7.80
2019-03-30T20:43:39.442Z,8.13
2019-03-30T20:46:27.417Z,8.07
2019-03-30T20:49:16.072Z,7.77
2019-03-30T20:52:04.882Z,8.10
2019-03-30T20:54:53.459Z,8.40
2019-03-30T20:57:41.283Z,8.40
2019-03-30T21:00:29.723Z,7.80
2019-03-30T21:03:17.861Z,9.23
2019-03-30T21:06:06.374Z,8.23
2019-03-30T21:08:54.432Z,8.53
2019-03-30T21:11:45.841Z,8.53
2019-03-30T21:14:36.556Z,9.10
2019-03-30T21:17:25.080Z,8.27
2019-03-30T21:20:13.518Z,8.70
2019-03-30T21:23:01.778Z,7.97
2019-03-30T21:25:49.648Z,8.17
2019-03-30T21:28:37.954Z,7.73
2019-03-30T21:31:25.434Z,7.60
2019-03-30T21:34:13.525Z,7.17
2019-03-30T21:37:01.068Z,7.57
2019-03-30T21:39:48.849Z,8.40
2019-03-30T21:42:36.312Z,7.97
2019-03-30T21:45:24.092Z,8.10
2019-03-30T21:48:12.194Z,7.47
2019-03-30T21:50:59.598Z,7.10
2019-03-30T21:53:47.310Z,6.90
2019-03-30T21:56:35.515Z,7.07
2019-03-30T21:59:23.788Z,6.67
2019-03-30T22:02:11.636Z,6.87
2019-03-30T22:04:59.707Z,6.80
2019-03-30T22:07:49.814Z,6.93
2019-03-30T22:10:38.288Z,5.77
2019-03-30T22:13:26.320Z,5.93
2019-03-30T22:16:14.735Z,5.73
2019-03-30T22:19:02.962Z,6.10
2019-03-30T22:21:51.207Z,6.00
2019-03-30T22:24:40.745Z,5.73
2019-03-30T22:27:28.692Z,5.70
2019-03-30T22:30:24.773Z,5.57
2019-03-30T22:33:07.041Z,4.80
2019-03-30T22:35:56.657Z,3.90
2019-03-30T22:38:45.483Z,4.10
2019-03-30T22:41:33.797Z,3.23
2019-03-30T22:44:21.496Z,2.50
2019-03-30T22:47:10.168Z,1.93
2019-03-30T22:49:58.679Z,2.07
2019-03-30T22:52:47.459Z,2.00
2019-03-30T22:56:16.012Z,3.03
2019-03-30T22:59:04.113Z,3.20
2019-03-30T23:01:58.093Z,2.83
2019-03-30T23:04:55.739Z,2.50
2019-03-30T23:07:43.770Z,2.40
2019-03-30T23:10:32.829Z,2.50
2019-03-30T23:13:24.662Z,3.00
2019-03-30T23:16:12.801Z,3.10
2019-03-30T23:19:01.242Z,3.13
2019-03-30T23:21:48.945Z,3.07
2019-03-30T23:24:37.179Z,2.10
2019-03-30T23:27:32.527Z,2.07
2019-03-30T23:30:22.552Z,1.60
2019-03-30T23:33:10.916Z,1.30
2019-03-30T23:36:04.559Z,1.57
2019-03-30T23:38:54.343Z,1.20
2019-03-30T23:41:45.835Z,1.40
2019-03-30T23:44:34.277Z,1.30
2019-03-30T23:47:25.514Z,1.20
2019-03-30T23:50:13.021Z,1.10
2019-03-30T23:53:01.260Z,1.00
2019-03-30T23:55:55.585Z,1.20
2019-03-30T23:58:45.303Z,1.23
